Time;durP1;ratioP1;P1;durP2;ratioP2;P2;SDS_P1;SDS_P2;PMS_P1;PMS_P2;Temp;Humidity;BMP_temperature;BMP_pressure;BME280_temperature;BME280_humidity;BME280_pressure;Samples;Min_cycle;Max_cycle;Signal;HPM_P1;HPM_P2
2022/11/02 00:00:19;;;;;;;15.05;1.65;;;;;;;12.85;76.68;101292.34;5003228;28;20493;-80
2022/11/02 00:02:45;;;;;;;11.20;1.40;;;;;;;12.88;76.79;101289.41;5002627;28;20046;-80
2022/11/02 00:05:12;;;;;;;12.52;2.20;;;;;;;12.83;76.92;101289.09;4987501;28;20034;-79
2022/11/02 00:07:38;;;;;;;11.60;1.23;;;;;;;12.89;76.78;101290.25;4988090;28;20069;-78
2022/11/02 00:10:04;;;;;;;16.63;2.08;;;;;;;12.86;77.09;101296.56;5003205;28;20030;-81
2022/11/02 00:12:34;;;;;;;14.52;1.67;;;;;;;12.95;76.25;101287.81;4995143;28;20033;-82
2022/11/02 00:15:00;;;;;;;12.73;1.55;;;;;;;12.92;76.40;101295.97;4964875;28;20034;-81
2022/11/02 00:17:26;;;;;;;13.00;2.03;;;;;;;12.88;76.69;101293.81;4996809;28;20048;-78
2022/11/02 00:19:52;;;;;;;12.00;1.70;;;;;;;12.92;76.30;101301.16;4978091;28;20062;-83
2022/11/02 00:22:18;;;;;;;16.80;2.15;;;;;;;12.91;76.46;101294.31;4995332;28;23085;-80
2022/11/02 00:24:43;;;;;;;12.35;2.10;;;;;;;12.89;77.11;101296.25;4994558;28;20037;-78
2022/11/02 00:27:10;;;;;;;5.75;1.42;;;;;;;12.90;76.23;101295.28;4980796;28;20041;-80
2022/11/02 00:29:35;;;;;;;18.77;2.15;;;;;;;12.89;76.75;101298.88;4981994;28;20058;-80
2022/11/02 00:32:01;;;;;;;14.98;1.88;;;;;;;12.97;76.23;101296.28;4991587;28;20147;-83
2022/11/02 00:34:27;;;;;;;17.73;1.48;;;;;;;12.99;76.14;101298.72;4992277;28;20095;-81
2022/11/02 00:36:53;;;;;;;16.15;1.92;;;;;;;13.07;76.08;101290.09;4989596;28;20530;-77
2022/11/02 00:39:19;;;;;;;13.32;1.58;;;;;;;13.00;75.97;101293.34;5012213;28;20033;-79
2022/11/02 00:41:44;;;;;;;10.25;1.40;;;;;;;12.92;76.29;101289.91;5009563;28;20624;-79
2022/11/02 00:44:10;;;;;;;9.70;2.45;;;;;;;13.01;76.04;101286.34;4971355;28;20096;-82
2022/11/02 00:46:35;;;;;;;17.48;1.77;;;;;;;12.99;76.34;101293.50;4992448;28;20056;-78
2022/11/02 00:49:01;;;;;;;12.38;1.77;;;;;;;13.00;76.35;101297.75;4993695;28;20038;-80
2022/11/02 00:51:28;;;;;;;18.30;1.35;;;;;;;12.95;76.18;101300.81;4990807;28;21696;-76
2022/11/02 00:53:53;;;;;;;11.27;1.75;;;;;;;12.98;76.33;101303.13;4987314;28;20030;-77
2022/11/02 00:56:19;;;;;;;15.63;1.90;;;;;;;13.10;75.43;101300.22;4980759;28;20041;-81
2022/11/02 00:58:45;;;;;;;9.10;1.40;;;;;;;12.97;76.55;101314.50;4986118;28;20031;-80
2022/11/02 01:01:11;;;;;;;13.18;1.52;;;;;;;12.98;76.22;101308.31;4992045;28;20034;-82
2022/11/02 01:03:37;;;;;;;10.82;1.58;;;;;;;13.00;76.30;101300.38;5003936;28;20088;-80
2022/11/02 01:06:10;;;;;;;10.85;1.35;;;;;;;12.90;76.29;101304.88;4977229;28;20058;-79
2022/11/02 01:08:36;;;;;;;10.38;1.40;;;;;;;12.85;76.71;101311.38;4969649;28;20563;-80
2022/11/02 01:11:11;;;;;;;14.35;1.50;;;;;;;12.75;77.37;101313.31;4964111;28;20045;-79
2022/11/02 01:13:36;;;;;;;13.82;1.40;;;;;;;12.88;77.07;101310.22;4974676;28;20064;-78
2022/11/02 01:16:03;;;;;;;15.77;2.30;;;;;;;12.88;76.95;101307.63;4988125;28;20062;-79
2022/11/02 01:18:29;;;;;;;17.15;1.85;;;;;;;12.95;76.46;101307.81;4987100;28;20129;-85
2022/11/02 01:20:58;;;;;;;8.75;1.23;;;;;;;12.77;76.96;101308.75;4993362;28;20588;-79
2022/11/02 01:23:24;;;;;;;7.53;1.48;;;;;;;12.71;77.95;101305.97;4966310;28;20083;-79
2022/11/02 01:25:50;;;;;;;15.93;1.77;;;;;;;12.72;77.69;101307.59;4992713;28;20676;-80
2022/11/02 01:28:18;;;;;;;13.13;1.63;;;;;;;12.63;78.17;101304.16;4991220;28;20287;-80
2022/11/02 01:30:46;;;;;;;7.32;1.50;;;;;;;12.64;78.27;101305.78;5007967;28;20487;-81
2022/11/02 01:33:11;;;;;;;12.68;1.67;;;;;;;12.73;78.27;101314.41;4990011;28;20117;-81
2022/11/02 01:35:37;;;;;;;14.02;1.50;;;;;;;12.69;78.55;101311.31;5007067;28;20038;-79
2022/11/02 01:38:03;;;;;;;13.63;1.60;;;;;;;12.69;78.61;101319.13;4987567;28;20422;-77
2022/11/02 01:40:38;;;;;;;17.52;1.63;;;;;;;12.68;78.31;101316.66;4982567;28;21247;-79
2022/11/02 01:43:24;;;;;;;10.63;2.05;;;;;;;12.64;78.94;101311.81;4983247;28;20038;-76
2022/11/02 01:46:05;;;;;;;14.40;1.90;;;;;;;12.68;78.54;101312.31;5004095;28;20065;-77
2022/11/02 01:48:34;;;;;;;10.10;1.40;;;;;;;12.54;78.82;101318.91;4977424;28;20033;-78
2022/11/02 01:51:03;;;;;;;11.40;1.70;;;;;;;12.57;79.25;101309.97;4988356;28;20477;-79
2022/11/02 01:53:32;;;;;;;10.10;1.98;;;;;;;12.43;80.11;101309.59;5005326;28;20041;-80
2022/11/02 01:55:59;;;;;;;16.80;2.60;;;;;;;12.55;79.42;101310.13;4986028;28;20057;-80
2022/11/02 01:58:25;;;;;;;14.40;1.73;;;;;;;12.50;79.49;101307.19;4986603;28;20022;-80
2022/11/02 02:00:51;;;;;;;14.15;2.10;;;;;;;12.46;80.02;101311.88;4971803;28;20030;-78
2022/11/02 02:03:20;;;;;;;14.90;2.35;;;;;;;12.45;79.87;101314.63;5005050;28;20125;-86
2022/11/02 02:05:51;;;;;;;9.77;1.60;;;;;;;12.51;79.55;101305.38;4985476;28;20542;-81
2022/11/02 02:08:20;;;;;;;12.38;1.85;;;;;;;12.42;80.44;101305.34;4989234;28;20025;-79
2022/11/02 02:10:46;;;;;;;14.57;1.98;;;;;;;12.38;80.53;101306.66;4983251;28;20034;-79
2022/11/02 02:13:12;;;;;;;14.77;2.28;;;;;;;12.48;80.42;101310.91;4969231;28;20049;-79
2022/11/02 02:16:14;;;;;;;9.73;1.75;;;;;;;12.47;80.26;101304.91;4998687;28;20121;-78
2022/11/02 02:18:46;;;;;;;18.55;2.45;;;;;;;12.51;79.77;101314.03;4994034;28;20049;-79
2022/11/02 02:21:23;;;;;;;13.45;1.40;;;;;;;12.61;79.47;101301.69;4988070;28;20452;-79
2022/11/02 02:23:51;;;;;;;16.50;1.80;;;;;;;12.65;79.50;101308.22;5007501;28;20038;-80
2022/11/02 02:26:31;;;;;;;11.30;1.42;;;;;;;12.56;80.18;101311.75;4977597;28;20092;-81
2022/11/02 02:29:03;;;;;;;12.93;2.28;;;;;;;12.51;80.55;101306.22;5005222;28;20046;-79
2022/11/02 02:31:39;;;;;;;13.98;2.20;;;;;;;12.52;80.29;101305.22;4996529;28;20030;-80
2022/11/02 02:34:13;;;;;;;8.35;1.42;;;;;;;12.49;80.80;101308.16;5008552;28;20034;-79
2022/11/02 02:36:51;;;;;;;10.05;1.75;;;;;;;12.50;80.48;101309.78;4974816;28;20049;-79
2022/11/02 02:39:43;;;;;;;10.20;1.58;;;;;;;12.52;80.22;101313.03;4989237;28;20036;-80
2022/11/02 02:42:27;;;;;;;12.30;1.95;;;;;;;12.51;80.09;101311.44;4973686;28;20114;-80
2022/11/02 02:45:05;;;;;;;13.93;1.70;;;;;;;12.42;80.14;101315.75;4992876;28;20033;-82
2022/11/02 02:47:34;;;;;;;6.70;1.50;;;;;;;12.54;79.69;101313.69;4985405;28;20038;-76
2022/11/02 02:50:08;;;;;;;13.38;1.60;;;;;;;12.39;80.14;101308.25;4991716;28;20035;-81
2022/11/02 02:52:36;;;;;;;16.63;2.60;;;;;;;12.39;79.97;101320.47;4980221;28;20049;-78
2022/11/02 02:55:05;;;;;;;8.40;1.52;;;;;;;12.34;80.25;101322.69;4995152;28;20038;-80
2022/11/02 02:57:33;;;;;;;14.88;1.75;;;;;;;12.41;80.38;101321.94;4974067;28;20042;-80
2022/11/02 02:59:59;;;;;;;13.40;2.22;;;;;;;12.35;79.95;101317.34;4957880;28;20535;-78
2022/11/02 03:02:35;;;;;;;15.07;1.58;;;;;;;12.30;80.41;101324.81;4984317;28;20058;-82
2022/11/02 03:05:00;;;;;;;17.10;3.22;;;;;;;12.25;80.59;101321.84;4988098;28;20030;-81
2022/11/02 03:07:30;;;;;;;12.50;2.13;;;;;;;12.29;80.48;101325.78;4976688;28;20100;-80
2022/11/02 03:10:15;;;;;;;10.32;1.77;;;;;;;12.20;81.05;101332.69;4996368;28;20038;-78
2022/11/02 03:12:53;;;;;;;10.88;1.60;;;;;;;12.11;81.06;101338.84;5003945;28;20566;-83
2022/11/02 03:15:40;;;;;;;13.65;1.90;;;;;;;12.10;81.22;101339.00;4985088;28;20072;-77
2022/11/02 03:18:26;;;;;;;7.63;1.65;;;;;;;12.05;81.53;101342.03;4977277;28;20042;-80
2022/11/02 03:21:00;;;;;;;6.47;1.40;;;;;;;11.97;81.71;101342.00;4991124;28;20568;-77
2022/11/02 03:23:36;;;;;;;9.60;2.10;;;;;;;12.16;81.07;101341.78;5008307;28;20030;-82
2022/11/02 03:26:09;;;;;;;7.05;1.30;;;;;;;12.10;80.98;101350.19;4985772;28;20030;-79
2022/11/02 03:29:00;;;;;;;8.65;1.48;;;;;;;12.04;81.67;101345.63;4993362;28;20120;-82
2022/11/02 03:31:38;;;;;;;12.80;1.67;;;;;;;12.03;82.11;101356.97;4987116;28;20038;-80
2022/11/02 03:34:06;;;;;;;12.02;1.67;;;;;;;12.05;82.19;101355.88;4993408;28;20423;-83
2022/11/02 03:36:39;;;;;;;8.40;1.60;;;;;;;11.97;82.22;101354.97;4992675;28;20046;-79
2022/11/02 03:39:09;;;;;;;9.77;1.70;;;;;;;11.83;82.83;101364.91;4989964;28;20034;-81
2022/11/02 03:41:40;;;;;;;10.80;1.88;;;;;;;11.83;83.23;101364.13;4993346;28;20064;-82
2022/11/02 03:44:22;;;;;;;10.45;1.75;;;;;;;11.86;82.82;101376.78;5012814;28;20048;-78
2022/11/02 03:46:51;;;;;;;12.60;1.83;;;;;;;11.84;82.88;101366.53;4992663;28;20040;-80
2022/11/02 03:49:19;;;;;;;8.98;1.70;;;;;;;11.79;83.50;101381.78;4987362;28;20033;-80
2022/11/02 03:51:48;;;;;;;10.15;1.50;;;;;;;11.74;83.41;101383.19;4990121;28;20034;-81
2022/11/02 03:54:52;;;;;;;11.65;1.48;;;;;;;11.83;83.41;101382.31;4992042;28;20036;-81
2022/11/02 03:57:24;;;;;;;13.02;2.28;;;;;;;11.94;82.38;101386.47;5007647;28;20466;-79
2022/11/02 03:59:50;;;;;;;10.15;1.83;;;;;;;11.81;82.10;101381.59;4973013;28;20392;-80
2022/11/02 04:02:17;;;;;;;17.35;2.47;;;;;;;11.78;82.10;101387.94;4986727;28;20034;-80
2022/11/02 04:04:50;;;;;;;9.82;1.75;;;;;;;11.85;81.72;101385.56;4992113;28;20034;-80
2022/11/02 04:07:26;;;;;;;8.77;1.17;;;;;;;11.87;81.17;101392.22;4997460;28;20049;-79
2022/11/02 04:09:52;;;;;;;7.57;1.27;;;;;;;11.86;80.91;101397.56;4983266;28;20034;-80
2022/11/02 04:15:04;;;;;;;12.85;3.00;;;;;;;11.71;81.27;101396.47;4969524;28;20030;-80
2022/11/02 04:20:15;;;;;;;14.15;1.50;;;;;;;11.75;81.25;101398.63;4988935;28;20030;-82
2022/11/02 04:25:26;;;;;;;9.13;2.20;;;;;;;11.76;81.09;101428.03;4982441;28;20445;-77
2022/11/02 04:28:11;;;;;;;12.73;1.40;;;;;;;11.65;81.67;101419.47;4978848;28;20071;-77
2022/11/02 04:30:46;;;;;;;8.02;1.45;;;;;;;11.74;81.03;101428.16;4989187;28;20035;-79
2022/11/02 04:36:05;;;;;;;11.07;1.95;;;;;;;11.73;80.90;101434.31;5007676;28;20499;-79
2022/11/02 04:38:41;;;;;;;8.98;1.83;;;;;;;11.82;80.52;101443.81;4991261;28;20037;-77
2022/11/02 04:41:41;;;;;;;7.53;1.58;;;;;;;11.75;80.53;101440.19;4969173;28;20446;-85
2022/11/02 04:44:30;;;;;;;11.07;2.03;;;;;;;11.67;80.66;101448.72;4992451;28;20188;-76
2022/11/02 04:47:04;;;;;;;10.05;1.80;;;;;;;11.72;80.73;101448.28;4973608;28;20041;-81
2022/11/02 04:49:32;;;;;;;10.40;1.33;;;;;;;11.57;81.22;101453.16;5004537;28;20120;-79
2022/11/02 04:51:58;;;;;;;10.90;1.40;;;;;;;11.63;81.23;101449.97;4987030;28;20483;-77
2022/11/02 04:54:25;;;;;;;17.63;2.15;;;;;;;11.59;81.08;101445.25;4982296;28;20030;-77
2022/11/02 04:56:55;;;;;;;14.77;1.92;;;;;;;11.68;81.04;101449.56;4974041;28;20039;-77
2022/11/02 04:59:23;;;;;;;13.15;1.67;;;;;;;11.60;81.19;101458.09;4988269;28;20022;-78
2022/11/02 05:01:48;;;;;;;12.63;1.38;;;;;;;11.56;81.09;101453.31;4971642;28;20038;-77
2022/11/02 05:04:15;;;;;;;12.57;1.48;;;;;;;11.66;80.98;101470.47;4988660;28;20519;-78
2022/11/02 05:06:40;;;;;;;16.10;1.73;;;;;;;11.66;80.61;101462.69;4992278;28;20044;-80
2022/11/02 05:09:08;;;;;;;12.25;1.52;;;;;;;11.59;80.64;101466.81;4992609;28;20030;-81
2022/11/02 05:11:33;;;;;;;10.00;1.50;;;;;;;11.59;81.18;101471.22;5007030;28;20120;-82
2022/11/02 05:13:59;;;;;;;9.82;1.70;;;;;;;11.42;81.70;101465.03;5004096;28;20030;-78
2022/11/02 05:16:26;;;;;;;13.45;1.67;;;;;;;11.42;81.55;101478.81;4989972;28;20149;-80
2022/11/02 05:18:53;;;;;;;19.10;1.95;;;;;;;11.40;81.91;101478.16;5004193;28;20525;-81
2022/11/02 05:21:19;;;;;;;14.07;1.48;;;;;;;11.45;81.37;101488.94;4975564;28;20033;-82
2022/11/02 05:23:47;;;;;;;12.00;2.08;;;;;;;11.42;81.29;101478.81;5006376;28;20435;-76
2022/11/02 05:26:13;;;;;;;11.40;1.60;;;;;;;11.42;81.56;101481.41;5006954;28;20110;-81
2022/11/02 05:28:42;;;;;;;13.00;1.27;;;;;;;11.48;81.10;101475.63;4986952;28;20484;-81
2022/11/02 05:31:08;;;;;;;14.57;2.00;;;;;;;11.43;80.98;101480.47;4973936;28;20038;-77
2022/11/02 05:33:34;;;;;;;13.38;2.75;;;;;;;11.45;81.36;101482.88;4983800;28;20580;-79
2022/11/02 05:36:06;;;;;;;8.45;1.60;;;;;;;11.37;81.10;101480.22;4972966;28;20038;-79
2022/11/02 05:38:34;;;;;;;7.80;2.33;;;;;;;11.26;81.45;101494.19;4994604;28;20029;-81
2022/11/02 05:41:00;;;;;;;11.18;2.30;;;;;;;11.29;81.66;101499.09;4967623;28;21919;-82
2022/11/02 05:43:30;;;;;;;15.50;3.50;;;;;;;11.17;82.49;101492.44;5006492;28;20026;-80
2022/11/02 05:46:00;;;;;;;13.88;2.75;;;;;;;11.26;81.74;101489.84;4978022;28;20037;-79
2022/11/02 05:48:27;;;;;;;15.50;2.60;;;;;;;11.27;81.76;101494.06;4998246;28;20069;-76
2022/11/02 05:50:57;;;;;;;12.75;2.22;;;;;;;11.39;80.85;101496.47;5001648;28;20547;-79
2022/11/02 05:53:24;;;;;;;23.25;6.63;;;;;;;11.20;81.75;101500.78;4990807;28;20030;-80
2022/11/02 05:55:49;;;;;;;19.48;2.90;;;;;;;11.20;82.10;101507.75;5000064;28;20058;-80
2022/11/02 05:58:15;;;;;;;13.60;3.47;;;;;;;11.34;81.23;101496.06;4980489;28;20029;-77
2022/11/02 06:00:40;;;;;;;12.52;2.55;;;;;;;11.18;81.84;101504.47;5003879;28;20093;-77
2022/11/02 06:03:06;;;;;;;16.10;3.55;;;;;;;11.21;82.16;101514.59;5007310;28;20033;-80
2022/11/02 06:05:32;;;;;;;16.35;2.60;;;;;;;11.19;81.29;101517.31;5003699;28;20124;-83
2022/11/02 06:07:59;;;;;;;22.42;5.53;;;;;;;11.18;81.28;101525.25;4991971;28;20036;-80
2022/11/02 06:10:27;;;;;;;16.85;2.83;;;;;;;11.17;81.61;101521.84;4991093;28;20068;-83
2022/11/02 06:12:54;;;;;;;16.38;2.55;;;;;;;11.18;81.48;101531.25;5007315;28;20034;-78
2022/11/02 06:15:20;;;;;;;11.73;2.20;;;;;;;11.22;81.53;101544.75;4974399;28;20172;-80
2022/11/02 06:17:45;;;;;;;14.00;2.33;;;;;;;11.07;81.42;101550.41;4990138;28;20046;-79
2022/11/02 06:20:11;;;;;;;11.55;1.85;;;;;;;11.14;81.82;101555.84;5007299;28;20042;-80
2022/11/02 06:22:40;;;;;;;17.05;2.08;;;;;;;11.14;81.59;101561.06;4995987;28;20034;-79
2022/11/02 06:25:07;;;;;;;15.70;2.10;;;;;;;11.16;82.00;101553.13;5002833;28;20030;-79
2022/11/02 06:27:32;;;;;;;12.70;2.42;;;;;;;11.15;81.49;101567.91;4986316;28;20030;-82
2022/11/02 06:29:58;;;;;;;10.27;2.08;;;;;;;11.10;81.85;101570.09;4993727;28;20026;-81
2022/11/02 06:32:23;;;;;;;10.10;2.08;;;;;;;11.12;82.02;101575.94;5008944;28;20041;-78
2022/11/02 06:34:49;;;;;;;12.00;3.08;;;;;;;11.08;82.30;101584.97;4979252;28;20045;-80
2022/11/02 06:37:14;;;;;;;18.13;2.47;;;;;;;11.01;82.59;101589.09;4990842;28;20049;-81
2022/11/02 06:39:51;;;;;;;12.70;1.90;;;;;;;10.97;82.99;101591.13;5005685;28;20042;-79
2022/11/02 06:42:16;;;;;;;11.85;1.73;;;;;;;11.12;82.64;101588.13;4983735;28;20042;-79
2022/11/02 06:44:42;;;;;;;15.90;1.50;;;;;;;11.01;83.16;101592.50;4989057;28;20034;-83
2022/11/02 06:47:07;;;;;;;8.57;1.85;;;;;;;11.14;82.67;101609.56;4984171;28;20022;-79
2022/11/02 06:49:32;;;;;;;12.55;1.92;;;;;;;11.16;82.79;101618.84;4987551;28;20030;-80
2022/11/02 06:51:58;;;;;;;10.18;1.75;;;;;;;11.08;82.75;101624.72;5006057;28;20484;-80
2022/11/02 06:54:23;;;;;;;11.55;2.40;;;;;;;11.17;82.78;101625.69;5000510;28;20453;-80
2022/11/02 06:56:49;;;;;;;10.98;1.25;;;;;;;11.15;82.73;101627.59;4974267;28;20097;-81
2022/11/02 06:59:14;;;;;;;11.23;1.98;;;;;;;11.10;82.71;101632.38;4984585;28;20049;-79
2022/11/02 07:01:40;;;;;;;19.13;1.80;;;;;;;11.22;82.28;101638.22;5007361;28;20048;-81
2022/11/02 07:04:05;;;;;;;14.10;1.45;;;;;;;11.24;81.58;101654.47;5010206;28;20482;-79
2022/11/02 07:06:31;;;;;;;13.10;1.73;;;;;;;11.26;81.38;101657.75;4974650;28;20030;-80
2022/11/02 07:08:56;;;;;;;17.60;2.03;;;;;;;11.18;81.95;101660.22;4985008;28;20487;-80
2022/11/02 07:11:22;;;;;;;19.60;2.22;;;;;;;11.12;82.34;101679.78;4987939;28;20109;-82
2022/11/02 07:13:47;;;;;;;9.35;1.50;;;;;;;11.09;82.24;101673.09;4982756;28;20030;-80
2022/11/02 07:16:13;;;;;;;18.95;1.83;;;;;;;11.27;81.65;101677.56;5004184;28;20042;-80
2022/11/02 07:18:39;;;;;;;14.00;1.65;;;;;;;11.21;81.63;101678.13;4993955;28;20556;-88
2022/11/02 07:21:05;;;;;;;13.43;1.40;;;;;;;11.20;81.40;101685.09;5010990;28;20066;-83
2022/11/02 07:23:31;;;;;;;23.05;2.67;;;;;;;11.24;81.40;101683.84;4998521;28;20069;-84
2022/11/02 07:25:56;;;;;;;11.38;1.55;;;;;;;11.18;81.82;101699.97;4996763;28;20406;-81
2022/11/02 07:28:22;;;;;;;9.50;2.00;;;;;;;11.22;81.51;101709.13;4994874;28;20049;-80
2022/11/02 07:30:47;;;;;;;17.70;3.67;;;;;;;11.23;81.70;101704.78;4985611;28;20046;-82
2022/11/02 07:33:13;;;;;;;18.08;2.60;;;;;;;11.30;81.31;101713.63;4989834;28;20023;-77
2022/11/02 07:35:38;;;;;;;10.35;1.70;;;;;;;11.33;81.06;101721.16;5010093;28;20530;-86
2022/11/02 07:38:05;;;;;;;11.68;1.70;;;;;;;11.28;81.39;101723.34;4994137;28;20490;-83
2022/11/02 07:40:34;;;;;;;13.93;2.30;;;;;;;11.32;81.05;101735.09;4998122;28;20039;-80
2022/11/02 07:42:59;;;;;;;12.90;2.15;;;;;;;11.43;80.55;101734.13;4972306;28;20117;-84
2022/11/02 07:45:38;;;;;;;14.38;2.60;;;;;;;11.44;80.44;101743.56;4994023;28;20042;-83
2022/11/02 07:48:04;;;;;;;18.65;2.92;;;;;;;11.32;81.27;101750.69;5009305;28;20193;-83
2022/11/02 07:50:29;;;;;;;21.17;2.33;;;;;;;11.44;80.64;101756.53;5006648;28;20034;-81
2022/11/02 07:52:57;;;;;;;14.77;2.35;;;;;;;11.49;79.70;101754.38;4990598;28;20035;-84
2022/11/02 07:55:25;;;;;;;20.33;2.22;;;;;;;11.48;80.31;101757.91;5006948;28;20042;-81
2022/11/02 07:57:57;;;;;;;19.85;1.58;;;;;;;11.56;80.13;101773.59;4972596;28;20034;-80
2022/11/02 08:00:24;;;;;;;18.33;1.80;;;;;;;11.62;79.46;101760.09;5002992;28;20050;-78
2022/11/02 08:02:57;;;;;;;14.05;1.98;;;;;;;11.80;77.95;101765.38;4990201;28;20062;-80
2022/11/02 08:05:23;;;;;;;;;;;;;;;12.12;77.16;101785.00;4990585;28;20045;-80
2022/11/02 08:08:19;;;;;;;11.60;1.60;;;;;;;12.44;76.10;101783.78;4977949;28;20365;-81
2022/11/02 08:10:47;;;;;;;12.98;1.55;;;;;;;12.77;74.82;101774.56;4991546;28;20120;-83
2022/11/02 08:13:16;;;;;;;15.98;1.65;;;;;;;13.00;73.13;101774.16;4977995;28;20125;-81
2022/11/02 08:15:41;;;;;;;11.88;2.10;;;;;;;13.32;71.79;101768.44;5008651;28;20124;-83
2022/11/02 08:18:12;;;;;;;15.10;2.15;;;;;;;13.44;71.12;101777.66;5009017;28;20045;-80
2022/11/02 08:20:38;;;;;;;12.68;1.92;;;;;;;13.66;70.68;101782.53;5007357;28;20064;-81
2022/11/02 08:23:04;;;;;;;16.15;1.60;;;;;;;14.01;69.28;101792.88;5002703;28;20034;-83
2022/11/02 08:25:30;;;;;;;14.23;1.90;;;;;;;14.09;68.93;101786.03;4989233;28;20061;-83
2022/11/02 08:27:58;;;;;;;17.13;1.55;;;;;;;13.86;69.88;101788.34;4980151;28;20114;-85
2022/11/02 08:30:27;;;;;;;9.18;2.10;;;;;;;13.50;70.18;101791.03;4984484;28;20936;-77
2022/11/02 08:32:53;;;;;;;20.35;2.60;;;;;;;13.85;69.75;101791.97;5003769;28;20042;-82
2022/11/02 08:35:19;;;;;;;10.70;1.95;;;;;;;13.86;69.02;101791.78;4990658;28;20510;-80
2022/11/02 08:37:51;;;;;;;10.32;2.05;;;;;;;13.83;69.63;101800.72;5005890;28;20271;-81
2022/11/02 08:40:16;;;;;;;14.00;1.67;;;;;;;14.00;69.39;101803.44;4991846;28;20038;-78
2022/11/02 08:42:42;;;;;;;15.05;2.67;;;;;;;14.24;68.23;101801.94;4991539;28;20034;-82
2022/11/02 08:45:07;;;;;;;12.48;1.73;;;;;;;14.26;68.36;101800.81;4990612;28;20077;-80
2022/11/02 08:47:38;;;;;;;16.38;1.90;;;;;;;14.23;68.63;101797.69;4986033;28;20450;-83
2022/11/02 08:50:04;;;;;;;13.35;1.55;;;;;;;14.12;69.42;101799.59;4985123;28;20511;-81
2022/11/02 08:52:35;;;;;;;12.68;1.30;;;;;;;13.89;70.12;101801.91;4992937;28;20035;-80
2022/11/02 08:55:00;;;;;;;11.98;1.95;;;;;;;13.79;70.84;101811.63;4986603;28;20038;-83
2022/11/02 08:57:25;;;;;;;13.65;1.77;;;;;;;13.81;70.87;101807.88;4989823;28;20049;-79
2022/11/02 08:59:51;;;;;;;12.13;1.98;;;;;;;13.73;70.81;101813.06;4984596;28;20037;-79
2022/11/02 09:02:17;;;;;;;14.43;1.70;;;;;;;13.65;71.20;101820.00;4988736;28;20030;-81
2022/11/02 09:04:43;;;;;;;11.02;2.55;;;;;;;13.43;71.56;101820.31;4976330;28;20053;-78
2022/11/02 09:07:08;;;;;;;15.98;2.00;;;;;;;13.41;71.35;101814.44;5008665;28;20499;-83
2022/11/02 09:09:34;;;;;;;17.83;3.83;;;;;;;13.23;71.36;101819.59;5004034;28;20329;-81
2022/11/02 09:11:59;;;;;;;9.73;2.25;;;;;;;13.09;72.50;101824.50;5005132;28;20084;-82
2022/11/02 09:14:25;;;;;;;11.70;1.77;;;;;;;13.24;73.05;101816.03;4987094;28;20486;-81
2022/11/02 09:16:50;;;;;;;8.38;1.55;;;;;;;13.14;72.73;101822.28;4984718;28;20034;-80
2022/11/02 09:19:16;;;;;;;16.10;1.60;;;;;;;13.20;73.50;101830.34;4979464;28;20030;-82
2022/11/02 09:21:41;;;;;;;12.82;2.38;;;;;;;13.10;72.88;101836.56;4989455;28;20044;-80
2022/11/02 09:24:07;;;;;;;14.13;1.98;;;;;;;13.11;72.23;101836.44;4989460;28;20834;-80
2022/11/02 09:26:32;;;;;;;11.82;1.92;;;;;;;12.98;73.48;101834.16;4972081;28;20390;-81
2022/11/02 09:28:58;;;;;;;12.77;2.10;;;;;;;13.22;72.27;101835.38;4969138;28;20084;-78
2022/11/02 09:31:23;;;;;;;18.92;1.90;;;;;;;13.24;73.51;101836.88;4991172;28;20034;-81
2022/11/02 09:33:52;;;;;;;9.10;2.28;;;;;;;13.16;73.50;101825.56;4991900;28;20041;-84
2022/11/02 09:36:17;;;;;;;15.55;2.38;;;;;;;13.12;73.20;101840.66;4992217;28;20088;-82
2022/11/02 09:38:43;;;;;;;18.20;3.03;;;;;;;13.12;72.86;101830.25;4996933;28;20815;-79
2022/11/02 09:41:30;;;;;;;10.20;1.90;;;;;;;13.23;72.57;101837.03;4975143;28;20091;-80
2022/11/02 09:44:13;;;;;;;16.95;2.38;;;;;;;13.43;71.43;101835.13;5007313;28;20488;-79
2022/11/02 09:46:43;;;;;;;9.52;1.50;;;;;;;13.32;71.20;101843.97;4983116;28;20030;-82
2022/11/02 09:49:23;;;;;;;16.05;2.25;;;;;;;13.21;71.94;101842.38;4969357;28;20161;-82
2022/11/02 09:51:55;;;;;;;11.50;2.03;;;;;;;13.18;71.26;101844.44;5004496;28;20111;-79
2022/11/02 09:54:30;;;;;;;15.77;1.38;;;;;;;13.22;71.13;101848.41;4994854;28;20051;-82
2022/11/02 09:57:01;;;;;;;9.40;1.65;;;;;;;13.17;71.07;101846.25;4994037;28;20038;-80
2022/11/02 09:59:27;;;;;;;11.98;1.88;;;;;;;13.18;71.31;101847.06;5005882;28;20471;-80
2022/11/02 10:01:57;;;;;;;11.15;1.60;;;;;;;13.16;70.76;101851.59;4988573;28;20080;-78
2022/11/02 10:04:35;;;;;;;15.82;2.22;;;;;;;13.16;71.54;101855.00;4992251;28;20043;-82
2022/11/02 10:07:28;;;;;;;14.60;2.50;;;;;;;13.23;70.37;101843.03;4969590;28;20033;-78
2022/11/02 10:09:59;;;;;;;14.45;2.10;;;;;;;13.40;69.09;101848.44;5003564;28;20034;-80
2022/11/02 10:12:48;;;;;;;16.48;2.33;;;;;;;13.46;69.08;101863.47;4985838;28;20100;-79
2022/11/02 10:15:21;;;;;;;17.67;2.55;;;;;;;13.33;68.93;101844.78;5004432;28;20040;-79
2022/11/02 10:17:49;;;;;;;;;;;;;;;13.32;69.37;101849.19;4999061;28;20052;-80
2022/11/02 10:20:27;;;;;;;12.43;1.50;;;;;;;13.34;69.67;101851.66;4989507;28;19922;-79
2022/11/02 10:23:02;;;;;;;18.95;1.65;;;;;;;13.36;69.50;101855.75;4996309;28;20034;-80
2022/11/02 10:25:27;;;;;;;11.27;2.03;;;;;;;13.29;69.89;101865.06;4987438;28;20049;-78
2022/11/02 10:28:03;;;;;;;20.02;2.75;;;;;;;13.30;70.69;101865.88;4978741;28;20042;-80
2022/11/02 10:30:29;;;;;;;8.70;1.67;;;;;;;13.37;70.71;101860.00;4986863;28;20121;-84
2022/11/02 10:32:55;;;;;;;12.05;1.70;;;;;;;13.22;69.06;101870.06;4974863;28;20111;-81
2022/11/02 10:35:44;;;;;;;17.67;1.60;;;;;;;13.27;69.15;101866.19;5009766;28;20034;-83
2022/11/02 10:38:36;;;;;;;9.45;1.50;;;;;;;13.27;67.92;101871.41;4992517;28;20049;-81
2022/11/02 10:41:17;;;;;;;12.75;1.48;;;;;;;13.30;68.25;101865.88;4991936;28;20135;-76
2022/11/02 10:43:52;;;;;;;9.63;1.42;;;;;;;13.24;68.03;101864.69;4991082;28;20142;-79
2022/11/02 10:46:42;;;;;;;14.45;1.50;;;;;;;13.21;68.25;101867.59;4975297;28;20042;-82
2022/11/02 10:49:34;;;;;;;12.90;1.55;;;;;;;13.29;68.84;101865.06;4993280;28;20121;-77
2022/11/02 10:51:59;;;;;;;9.85;1.30;;;;;;;13.22;67.93;101867.47;5010326;28;20042;-78
2022/11/02 10:54:25;;;;;;;12.40;1.20;;;;;;;13.26;67.18;101865.38;4991958;28;20045;-82
2022/11/02 10:56:50;;;;;;;11.57;1.45;;;;;;;13.36;66.72;101873.97;4993074;28;20073;-83
2022/11/02 10:59:24;;;;;;;12.90;1.77;;;;;;;13.42;66.54;101870.75;4999690;28;20045;-81
2022/11/02 11:01:55;;;;;;;11.90;1.42;;;;;;;13.34;67.34;101875.09;4993034;28;20058;-84
2022/11/02 11:04:24;;;;;;;9.88;1.60;;;;;;;13.47;67.17;101874.72;5004733;28;20038;-84
2022/11/02 11:06:50;;;;;;;9.23;1.77;;;;;;;13.36;67.24;101878.38;4981298;28;20104;-80
2022/11/02 11:09:19;;;;;;;15.60;1.83;;;;;;;13.42;67.47;101888.19;4996033;28;20368;-82
2022/11/02 11:11:54;;;;;;;13.13;1.48;;;;;;;13.40;67.90;101883.13;4979697;28;20550;-79
2022/11/02 11:14:22;;;;;;;13.63;1.77;;;;;;;13.30;67.02;101885.00;4990801;28;20033;-81
2022/11/02 11:17:01;;;;;;;15.15;2.47;;;;;;;13.31;67.19;101881.41;4980751;28;20045;-79
2022/11/02 11:19:34;;;;;;;13.90;1.90;;;;;;;13.48;67.60;101881.56;4970362;28;20454;-79
2022/11/02 11:22:00;;;;;;;;;;;;;;;13.56;65.97;101882.47;4996767;28;20033;-79
2022/11/02 11:24:32;;;;;;;19.13;1.63;;;;;;;13.52;65.96;101873.28;4992359;28;19972;-84
2022/11/02 11:27:10;;;;;;;16.88;1.60;;;;;;;13.48;64.67;101887.59;4995066;28;20054;-80
2022/11/02 11:29:39;;;;;;;11.75;1.48;;;;;;;13.55;65.46;101885.22;5008365;28;20041;-78
2022/11/02 11:32:16;;;;;;;11.52;1.58;;;;;;;13.56;65.99;101881.63;4973856;28;20078;-79
2022/11/02 11:34:45;;;;;;;12.93;1.55;;;;;;;13.64;65.77;101881.72;5003862;28;20030;-80
2022/11/02 11:37:15;;;;;;;10.07;1.98;;;;;;;13.67;65.55;101880.59;5003151;28;20662;-81
2022/11/02 11:39:45;;;;;;;8.32;1.27;;;;;;;13.70;65.97;101882.91;5010948;28;20049;-78
2022/11/02 11:42:20;;;;;;;15.40;1.77;;;;;;;13.72;65.43;101875.75;4994490;28;20038;-79